Sunday, October 21, 2018, 6:36 AM EDT
Back to Local

KPOU, Poughkeepsie Dutchess Cty

Location: Wappingers Falls, NY, United States Lat: 41.633
Local Time: 6:36 AM EDT (10:36 GMT) Lon: -73.883
Time Zone: US/Eastern Elev: 167 ft

Show me the last for .
Show Decoded

2018-10-21 05:53 METAR KPOU 210953Z AUTO 30005KT 10SM OVC080 07/04 A2971 RMK AO2 SLP059 T00720044
                 =
2018-10-21 04:53 METAR KPOU 210853Z 32003KT 10SM OVC070 07/05 A2967 RMK AO2 SLP043 60002
                 T00720050 53010 =
2018-10-21 03:53 METAR KPOU 210753Z 26004KT 10SM OVC060 07/06 A2964 RMK AO2 SLP033 T00720061 =
2018-10-21 02:53 METAR KPOU 210653Z 25003KT 10SM OVC050 07/06 A2961 RMK AO2 RAE30 SLP025 P0002
                 T00720061 =
2018-10-21 01:53 METAR KPOU 210553Z 35003KT 8SM -RA FEW016 SCT030 OVC039 08/06 A2964 RMK AO2
                 SLP033 P0009 60012 T00780056 10106 20078 53006 =
2018-10-21 01:42 METAR KPOU 210542Z 36005KT 6SM -RA BR FEW014 BKN030 OVC037 08/06 A2964 RMK AO2
                 P0008 T00780056 =
2018-10-21 01:04 METAR KPOU 210504Z 34006KT 5SM -RA BR FEW009 BKN025 OVC038 08/07 A2964 RMK AO2
                 P0002 T00830067 =
2018-10-21 00:53 METAR KPOU 210453Z 32003KT 8SM -RA OVC038 09/07 A2963 RMK AO2 SLP031 P0003
                 T00890067 401670089 =
2018-10-20 23:53 METAR KPOU 210353Z 00000KT 10SM -RA SCT050 OVC070 09/07 A2963 RMK AO2 RAB48
                 SLP029 P0000 T00940072 =
2018-10-20 22:53 METAR KPOU 210253Z 03003KT 10SM OVC060 10/07 A2962 RMK AO2 SLP027 T01000067
                 53005 =
2018-10-20 21:53 METAR KPOU 210153Z 00000KT 10SM BKN055 OVC075 10/07 A2962 RMK AO2 SLP025
                 T01000072 =
2018-10-20 20:53 METAR KPOU 210053Z 00000KT 10SM SCT055 BKN070 OVC095 10/07 A2961 RMK AO2 SLP022
                 T01000067 =
2018-10-20 19:53 METAR KPOU 202353Z 20003KT 10SM OVC075 10/07 A2961 RMK AO2 SLP022 T01000067
                 10167 20094 52005 =
2018-10-20 18:53 METAR KPOU 202253Z 00000KT 10SM SCT070 OVC085 10/07 A2961 RMK AO2 SLP022
                 T01000067 =
2018-10-20 17:53 METAR KPOU 202153Z 28003KT 10SM CLR 13/04 A2959 RMK AO2 SLP017 T01330044 =
2018-10-20 16:53 METAR KPOU 202053Z 31004KT 10SM SCT070 OVC085 14/06 A2959 RMK AO2 PK WND
                 29027/2003 SLP017 T01440056 55010 =
2018-10-20 15:53 METAR KPOU 201953Z 25012KT 10SM FEW070 BKN085 16/05 A2959 RMK AO2 SLP017
                 T01610050 =
2018-10-20 14:53 METAR KPOU 201853Z 26008KT 10SM FEW048 OVC070 16/07 A2960 RMK AO2 SLP018
                 T01610067 =
2018-10-20 13:53 METAR KPOU 201753Z 26009G15KT 10SM SCT044 OVC065 16/07 A2962 RMK AO2 SLP028
                 T01560067 10161 20117 58021 =
2018-10-20 12:53 METAR KPOU 201653Z 25009KT 10SM SCT043 OVC060 16/07 A2965 RMK AO2 SLP036
                 T01560072 =
2018-10-20 12:15 METAR KPOU 201615Z 27007KT 10SM FEW040 OVC049 16/08 A2967 RMK AO2 T01560083 =
2018-10-20 11:53 METAR KPOU 201553Z 24009KT 10SM BKN025 BKN034 14/08 A2967 RMK AO2 SLP045
                 T01440078 =
2018-10-20 10:53 METAR KPOU 201453Z 24008KT 200V280 10SM BKN025 BKN034 BKN060 14/08 A2969 RMK AO2
                 SLP049 T01390083 58009 =
2018-10-20 09:53 METAR KPOU 201353Z 24008KT 10SM FEW019 OVC034 13/09 A2971 RMK AO2 SLP056
                 T01280089 =
2018-10-20 08:53 METAR KPOU 201253Z VRB04KT 10SM FEW017 OVC034 12/09 A2971 RMK AO2 SLP057
                 T01220089 =
2018-10-20 07:53 METAR KPOU 201153Z VRB06KT 10SM SCT017 OVC032 12/08 A2971 RMK AO2 SLP058 60003
                 70003 T01170083 10117 20100 55003 =
2018-10-20 06:53 METAR KPOU 201053Z 15004KT 10SM OVC045 11/08 A2970 RMK AO2 SLP055 T01060078 =

Support USWX by starting your Amazon purchase here.